Time;durP1;ratioP1;P1;durP2;ratioP2;P2;SDS_P1;SDS_P2;PMS_P1;PMS_P2;Temp;Humidity;BMP_temperature;BMP_pressure;BME280_temperature;BME280_humidity;BME280_pressure;Samples;Min_cycle;Max_cycle;Signal;HPM_P1;HPM_P2
2023/05/21 00:03:46;;;;;;;19.50;9.05;;;;;;;;;;10332667;28;20042;-73
2023/05/21 00:08:46;;;;;;;16.08;8.90;;;;;;;;;;10335018;28;20026;-73
2023/05/21 00:13:46;;;;;;;13.20;8.67;;;;;;;;;;10334702;28;20035;-74
2023/05/21 00:18:48;;;;;;;14.43;9.18;;;;;;;;;;10334475;28;20217;-74
2023/05/21 00:23:49;;;;;;;15.05;9.23;;;;;;;;;;10334657;28;20033;-74
2023/05/21 00:28:49;;;;;;;15.07;9.77;;;;;;;;;;10334169;28;20351;-74
2023/05/21 00:33:49;;;;;;;15.45;8.30;;;;;;;;;;10333454;28;20042;-74
2023/05/21 00:38:50;;;;;;;11.68;8.05;;;;;;;;;;10333858;28;20089;-74
2023/05/21 00:43:51;;;;;;;9.43;6.53;;;;;;;;;;10333096;28;20061;-74
2023/05/21 00:48:51;;;;;;;14.07;7.90;;;;;;;;;;10333369;28;20371;-75
2023/05/21 00:53:52;;;;;;;15.57;7.45;;;;;;;;;;10333653;28;20018;-74
2023/05/21 00:58:58;;;;;;;15.77;7.75;;;;;;;;;;10333578;28;20030;-74
2023/05/21 01:04:00;;;;;;;11.40;6.18;;;;;;;;;;10370983;28;20045;-75
2023/05/21 01:09:02;;;;;;;10.35;6.70;;;;;;;;;;10373607;28;20053;-74
2023/05/21 01:14:04;;;;;;;14.60;8.98;;;;;;;;;;10370969;28;20033;-74
2023/05/21 01:19:05;;;;;;;16.73;9.40;;;;;;;;;;10373670;28;20104;-74
2023/05/21 01:24:07;;;;;;;16.60;8.77;;;;;;;;;;10373580;28;20068;-74
2023/05/21 01:29:11;;;;;;;19.92;10.23;;;;;;;;;;10373422;28;20072;-73
2023/05/21 01:34:13;;;;;;;19.40;9.10;;;;;;;;;;10372773;28;20056;-75
2023/05/21 01:39:23;;;;;;;26.20;11.18;;;;;;;;;;10372891;28;20200;-74
2023/05/21 01:44:25;;;;;;;24.98;11.02;;;;;;;;;;10360499;28;20040;-72
2023/05/21 01:49:25;;;;;;;18.38;11.10;;;;;;;;;;10370858;28;20332;-72
2023/05/21 01:54:25;;;;;;;19.83;11.90;;;;;;;;;;10374091;28;20022;-72
2023/05/21 01:59:26;;;;;;;19.77;12.18;;;;;;;;;;10380567;28;20030;-72
2023/05/21 02:04:27;;;;;;;23.30;12.15;;;;;;;;;;10370729;28;20057;-72
2023/05/21 02:09:27;;;;;;;18.67;11.90;;;;;;;;;;10377579;28;20056;-73
2023/05/21 02:14:28;;;;;;;23.92;13.15;;;;;;;;;;10377048;28;20094;-72
2023/05/21 02:19:28;;;;;;;20.77;13.93;;;;;;;;;;10376673;28;20029;-74
2023/05/21 02:24:29;;;;;;;25.15;15.38;;;;;;;;;;10391782;28;20201;-72
2023/05/21 02:29:29;;;;;;;21.48;15.55;;;;;;;;;;10379842;28;20034;-72
2023/05/21 02:34:35;;;;;;;31.77;16.08;;;;;;;;;;10378840;28;20030;-73
2023/05/21 02:39:35;;;;;;;25.25;14.13;;;;;;;;;;10378952;28;20033;-73
2023/05/21 02:44:36;;;;;;;33.80;16.55;;;;;;;;;;10379193;28;20382;-71
2023/05/21 02:49:36;;;;;;;23.77;14.52;;;;;;;;;;10415465;28;20036;-72
2023/05/21 02:54:36;;;;;;;26.50;16.20;;;;;;;;;;10363309;28;20263;-72
2023/05/21 02:59:36;;;;;;;26.58;15.13;;;;;;;;;;10374228;28;20042;-72
2023/05/21 03:04:44;;;;;;;21.30;14.87;;;;;;;;;;10337410;28;20289;-72
2023/05/21 03:09:45;;;;;;;27.25;13.63;;;;;;;;;;10336845;28;20391;-72
2023/05/21 03:14:45;;;;;;;31.27;16.42;;;;;;;;;;10337195;28;20085;-72
2023/05/21 03:19:45;;;;;;;27.80;15.10;;;;;;;;;;10337192;28;20053;-72
2023/05/21 03:24:45;;;;;;;26.02;15.02;;;;;;;;;;10298768;28;20034;-73
2023/05/21 03:29:46;;;;;;;26.58;15.05;;;;;;;;;;10336363;28;20076;-72
2023/05/21 03:34:46;;;;;;;27.77;14.45;;;;;;;;;;10336493;28;20173;-72
2023/05/21 03:39:46;;;;;;;30.15;15.57;;;;;;;;;;10336370;28;20383;-73
2023/05/21 03:44:46;;;;;;;33.20;14.25;;;;;;;;;;10336453;28;20097;-72
2023/05/21 03:49:47;;;;;;;28.30;13.77;;;;;;;;;;10335954;28;20033;-73
2023/05/21 03:54:47;;;;;;;29.75;12.73;;;;;;;;;;10346630;28;20197;-72
2023/05/21 03:59:48;;;;;;;24.93;15.40;;;;;;;;;;10335523;28;20046;-71
2023/05/21 04:04:50;;;;;;;25.67;14.18;;;;;;;;;;10333517;28;20570;-73
2023/05/21 04:09:50;;;;;;;22.52;12.70;;;;;;;;;;10334461;28;20042;-73
2023/05/21 04:14:50;;;;;;;26.42;13.98;;;;;;;;;;10334494;28;20026;-73
2023/05/21 04:19:51;;;;;;;24.30;14.17;;;;;;;;;;10330970;28;20045;-74
2023/05/21 04:24:52;;;;;;;23.48;12.43;;;;;;;;;;10396556;23;20049;-76
2023/05/21 04:29:53;;;;;;;25.05;12.80;;;;;;;;;;10367462;28;20040;-80
2023/05/21 04:34:53;;;;;;;21.80;13.02;;;;;;;;;;10380880;28;20029;-73
2023/05/21 04:39:54;;;;;;;21.70;12.93;;;;;;;;;;10397439;28;20033;-75
2023/05/21 04:44:54;;;;;;;31.47;12.90;;;;;;;;;;10392750;28;20124;-77
2023/05/21 04:49:55;;;;;;;31.38;11.77;;;;;;;;;;10372206;28;20029;-75
2023/05/21 04:54:56;;;;;;;17.20;8.67;;;;;;;;;;10381578;28;20036;-78
2023/05/21 04:59:56;;;;;;;16.20;8.57;;;;;;;;;;10387762;28;20397;-77
2023/05/21 05:04:58;;;;;;;13.18;6.53;;;;;;;;;;10372516;28;20132;-78
2023/05/21 05:09:58;;;;;;;9.63;5.38;;;;;;;;;;10400134;28;20037;-78
2023/05/21 05:14:59;;;;;;;9.02;4.80;;;;;;;;;;10380937;28;20527;-78
2023/05/21 05:20:00;;;;;;;9.68;5.18;;;;;;;;;;10397804;28;20634;-78
2023/05/21 05:25:00;;;;;;;15.73;5.10;;;;;;;;;;10397689;28;20119;-78
2023/05/21 05:30:00;;;;;;;10.50;6.03;;;;;;;;;;10383125;28;20033;-74
2023/05/21 05:35:01;;;;;;;11.60;6.15;;;;;;;;;;10403659;28;20283;-80
2023/05/21 05:40:03;;;;;;;13.65;4.72;;;;;;;;;;10399359;28;20046;-75
2023/05/21 05:45:03;;;;;;;8.85;4.25;;;;;;;;;;10375140;28;20041;-74
2023/05/21 05:50:04;;;;;;;8.48;4.97;;;;;;;;;;10386294;28;20061;-74
2023/05/21 05:55:07;;;;;;;9.75;4.70;;;;;;;;;;10388577;28;20492;-79
2023/05/21 06:00:09;;;;;;;15.93;4.65;;;;;;;;;;10404177;28;20033;-74
2023/05/21 06:05:09;;;;;;;10.00;4.25;;;;;;;;;;10356599;28;20037;-75
2023/05/21 06:10:12;;;;;;;9.55;4.45;;;;;;;;;;10375880;28;20034;-83
2023/05/21 06:15:13;;;;;;;6.45;3.88;;;;;;;;;;10352843;28;20120;-77
2023/05/21 06:20:15;;;;;;;9.60;3.75;;;;;;;;;;10376930;23;20257;-73
2023/05/21 06:25:15;;;;;;;9.23;3.83;;;;;;;;;;10318811;28;20038;-74
2023/05/21 06:30:15;;;;;;;13.27;4.63;;;;;;;;;;10326844;28;20041;-71
2023/05/21 06:35:16;;;;;;;7.47;4.10;;;;;;;;;;10324111;28;20030;-70
2023/05/21 06:40:16;;;;;;;10.85;3.85;;;;;;;;;;10324859;28;20077;-72
2023/05/21 06:45:16;;;;;;;12.17;4.90;;;;;;;;;;10322017;28;20038;-71
2023/05/21 06:50:16;;;;;;;8.70;3.77;;;;;;;;;;10323275;28;20096;-73
2023/05/21 06:55:17;;;;;;;8.48;3.67;;;;;;;;;;10322430;28;20367;-72
2023/05/21 07:00:17;;;;;;;9.80;4.40;;;;;;;;;;10322681;28;20164;-74
2023/05/21 07:05:18;;;;;;;7.65;4.20;;;;;;;;;;10321960;28;20038;-74
2023/05/21 07:10:18;;;;;;;13.52;4.55;;;;;;;;;;10324539;28;20077;-74
2023/05/21 07:15:18;;;;;;;9.90;3.97;;;;;;;;;;10323367;28;20224;-76
2023/05/21 07:20:19;;;;;;;12.87;3.50;;;;;;;;;;10327908;28;20085;-74
2023/05/21 07:25:19;;;;;;;7.72;3.83;;;;;;;;;;10366860;28;20034;-75
2023/05/21 07:30:20;;;;;;;6.63;3.30;;;;;;;;;;10366161;28;20220;-73
2023/05/21 07:35:20;;;;;;;8.73;3.63;;;;;;;;;;10368046;28;20081;-73
2023/05/21 07:40:20;;;;;;;6.03;2.90;;;;;;;;;;10367762;28;20088;-74
2023/05/21 07:45:20;;;;;;;7.10;3.53;;;;;;;;;;10367521;28;20045;-74
2023/05/21 07:50:21;;;;;;;10.27;4.40;;;;;;;;;;10365504;28;20207;-74
2023/05/21 07:55:21;;;;;;;7.67;3.40;;;;;;;;;;10366040;28;20326;-73
2023/05/21 08:00:22;;;;;;;8.85;3.83;;;;;;;;;;10367199;28;20030;-73
2023/05/21 08:05:24;;;;;;;9.25;3.40;;;;;;;;;;10366823;28;20058;-74
2023/05/21 08:10:24;;;;;;;10.32;3.00;;;;;;;;;;10367801;28;20371;-73
2023/05/21 08:15:24;;;;;;;6.07;3.05;;;;;;;;;;10362465;28;20029;-74
2023/05/21 08:20:25;;;;;;;8.60;3.13;;;;;;;;;;10366597;28;20267;-74
2023/05/21 08:25:25;;;;;;;5.80;2.80;;;;;;;;;;10365912;28;20330;-73
2023/05/21 08:30:26;;;;;;;12.63;2.85;;;;;;;;;;10365865;28;20029;-74
2023/05/21 08:35:26;;;;;;;6.97;3.30;;;;;;;;;;10365457;28;20065;-73
2023/05/21 08:40:26;;;;;;;7.53;3.42;;;;;;;;;;10365632;28;20030;-73
2023/05/21 08:45:34;;;;;;;6.20;2.73;;;;;;;;;;10365739;28;20041;-73
2023/05/21 08:50:34;;;;;;;;;;;;;;;;;;10366611;28;20025;-73
2023/05/21 08:55:35;;;;;;;6.97;2.70;;;;;;;;;;10361535;28;19920;-74
2023/05/21 09:00:36;;;;;;;5.45;3.30;;;;;;;;;;10365114;28;20343;-74
2023/05/21 09:05:42;;;;;;;9.23;2.90;;;;;;;;;;10364780;28;20251;-74
2023/05/21 09:10:52;;;;;;;4.53;2.63;;;;;;;;;;10364375;28;20085;-73
2023/05/21 09:15:52;;;;;;;7.57;3.10;;;;;;;;;;10364164;28;20108;-73
2023/05/21 09:20:55;;;;;;;9.63;2.57;;;;;;;;;;10362507;28;20092;-73
2023/05/21 09:25:56;;;;;;;6.10;2.28;;;;;;;;;;10363009;28;20355;-73
2023/05/21 09:31:01;;;;;;;8.60;2.65;;;;;;;;;;10364176;28;20041;-73
2023/05/21 09:36:02;;;;;;;3.17;2.55;;;;;;;;;;10363057;28;20022;-74
2023/05/21 09:41:05;;;;;;;7.30;2.23;;;;;;;;;;10342824;28;20032;-75
2023/05/21 09:46:05;;;;;;;7.80;2.67;;;;;;;;;;10359806;28;20037;-73
2023/05/21 09:51:16;;;;;;;4.57;2.47;;;;;;;;;;10362032;28;20038;-75
2023/05/21 09:56:17;;;;;;;7.82;2.40;;;;;;;;;;10360420;28;20056;-75
2023/05/21 10:01:18;;;;;;;9.13;2.47;;;;;;;;;;10360720;28;20203;-74
2023/05/21 10:06:19;;;;;;;6.32;2.42;;;;;;;;;;10360280;28;20067;-74
2023/05/21 10:11:22;;;;;;;3.92;2.30;;;;;;;;;;10363508;28;20053;-76
2023/05/21 10:16:23;;;;;;;3.92;1.77;;;;;;;;;;10366012;28;20085;-74
2023/05/21 10:21:23;;;;;;;6.60;2.75;;;;;;;;;;10368606;28;20049;-74
2023/05/21 10:26:23;;;;;;;10.60;3.10;;;;;;;;;;10370034;28;20067;-74
2023/05/21 10:31:25;;;;;;;9.80;3.10;;;;;;;;;;10370492;28;20581;-73
2023/05/21 10:36:29;;;;;;;7.00;2.90;;;;;;;;;;10367903;28;20282;-74
2023/05/21 10:41:34;;;;;;;6.45;2.65;;;;;;;;;;10369848;28;20366;-76
2023/05/21 10:46:48;;;;;;;10.25;3.03;;;;;;;;;;10368763;28;20033;-76
2023/05/21 10:51:54;;;;;;;31.10;4.95;;;;;;;;;;10369956;28;20362;-77
2023/05/21 10:57:13;;;;;;;7.55;3.35;;;;;;;;;;10370914;28;20029;-74
2023/05/21 11:02:14;;;;;;;4.50;2.72;;;;;;;;;;10370614;28;20026;-77
2023/05/21 11:07:21;;;;;;;11.48;3.60;;;;;;;;;;10347826;28;20413;-75
2023/05/21 11:12:22;;;;;;;5.82;2.92;;;;;;;;;;10370560;28;20267;-76
2023/05/21 11:17:35;;;;;;;11.52;3.70;;;;;;;;;;10369919;28;20029;-75
2023/05/21 11:22:36;;;;;;;5.40;3.28;;;;;;;;;;10366345;28;20350;-75
2023/05/21 11:27:38;;;;;;;5.00;2.95;;;;;;;;;;10367379;28;20025;-74
2023/05/21 11:32:39;;;;;;;5.25;3.63;;;;;;;;;;10368686;28;20086;-76
2023/05/21 11:37:40;;;;;;;10.48;3.38;;;;;;;;;;10368814;28;20036;-76
2023/05/21 11:42:42;;;;;;;10.40;3.28;;;;;;;;;;10368779;28;20312;-76
2023/05/21 11:47:43;;;;;;;12.70;4.53;;;;;;;;;;10375164;28;20469;-75
2023/05/21 11:52:44;;;;;;;5.23;3.10;;;;;;;;;;10367332;28;20076;-75
2023/05/21 11:57:46;;;;;;;13.15;4.10;;;;;;;;;;10367723;28;20292;-75
2023/05/21 12:02:50;;;;;;;8.85;4.13;;;;;;;;;;10348602;28;20036;-75
2023/05/21 12:07:50;;;;;;;10.30;3.70;;;;;;;;;;10368365;28;20026;-74
2023/05/21 12:12:50;;;;;;;11.10;4.28;;;;;;;;;;10367629;28;20024;-75
2023/05/21 12:17:54;;;;;;;10.73;4.23;;;;;;;;;;10367493;28;20060;-76
2023/05/21 12:22:55;;;;;;;12.25;4.20;;;;;;;;;;10368003;28;20300;-76
2023/05/21 12:27:57;;;;;;;7.70;3.65;;;;;;;;;;10364786;28;20251;-76
2023/05/21 12:32:58;;;;;;;11.75;3.90;;;;;;;;;;10367202;28;20096;-75
2023/05/21 12:38:02;;;;;;;10.13;3.85;;;;;;;;;;10366351;28;20041;-75
2023/05/21 12:43:03;;;;;;;12.13;3.70;;;;;;;;;;10365527;28;20048;-75
2023/05/21 12:48:03;;;;;;;8.57;4.07;;;;;;;;;;10365870;28;20065;-75
2023/05/21 12:53:07;;;;;;;6.72;3.83;;;;;;;;;;10363763;28;20034;-75
2023/05/21 12:58:12;;;;;;;8.75;3.88;;;;;;;;;;10362985;28;20274;-75
2023/05/21 13:03:13;;;;;;;11.38;4.70;;;;;;;;;;10363616;28;20108;-73
2023/05/21 13:08:15;;;;;;;6.72;3.15;;;;;;;;;;10363769;28;20065;-75
2023/05/21 13:13:15;;;;;;;10.25;3.25;;;;;;;;;;10361703;28;20327;-74
2023/05/21 13:18:16;;;;;;;6.88;3.05;;;;;;;;;;10364686;28;20066;-73
2023/05/21 13:23:16;;;;;;;6.10;3.40;;;;;;;;;;10363633;28;20049;-74
2023/05/21 13:28:16;;;;;;;5.63;3.17;;;;;;;;;;10362726;28;20350;-75
2023/05/21 13:33:17;;;;;;;6.15;3.40;;;;;;;;;;10363435;28;20021;-74
2023/05/21 13:38:17;;;;;;;10.82;3.78;;;;;;;;;;10363318;28;20040;-75
2023/05/21 13:43:17;;;;;;;13.40;3.50;;;;;;;;;;10364032;28;20040;-75
2023/05/21 13:48:17;;;;;;;9.80;3.75;;;;;;;;;;10363282;28;20018;-74
2023/05/21 13:53:18;;;;;;;10.00;3.38;;;;;;;;;;10367302;28;20072;-75
2023/05/21 13:58:18;;;;;;;12.88;4.22;;;;;;;;;;10369677;28;20032;-75
2023/05/21 14:03:18;;;;;;;10.50;4.13;;;;;;;;;;10370355;28;20112;-75
2023/05/21 14:08:19;;;;;;;12.53;4.40;;;;;;;;;;10367821;28;20030;-75
2023/05/21 14:13:19;;;;;;;8.57;3.55;;;;;;;;;;10370581;28;20030;-72
2023/05/21 14:18:20;;;;;;;8.43;3.63;;;;;;;;;;10359728;28;20100;-74
2023/05/21 14:23:20;;;;;;;10.20;3.45;;;;;;;;;;10368827;28;20117;-73
2023/05/21 14:28:20;;;;;;;10.63;3.65;;;;;;;;;;10370250;28;20038;-74
2023/05/21 14:33:20;;;;;;;10.65;3.85;;;;;;;;;;10370011;28;20391;-72
2023/05/21 14:38:21;;;;;;;13.43;4.13;;;;;;;;;;10365180;28;20030;-72
2023/05/21 14:43:21;;;;;;;9.10;4.50;;;;;;;;;;10369821;28;20096;-71
2023/05/21 14:48:22;;;;;;;9.33;3.93;;;;;;;;;;10368468;28;20238;-71
2023/05/21 14:53:23;;;;;;;15.23;4.80;;;;;;;;;;10369404;28;20053;-68
2023/05/21 14:58:23;;;;;;;7.87;4.33;;;;;;;;;;10369330;28;20037;-71
2023/05/21 15:03:23;;;;;;;9.95;3.70;;;;;;;;;;10366783;28;20045;-70
2023/05/21 15:08:24;;;;;;;12.23;3.90;;;;;;;;;;10368093;28;20366;-70
2023/05/21 15:13:25;;;;;;;13.45;4.97;;;;;;;;;;10369091;28;20037;-76
2023/05/21 15:18:26;;;;;;;11.32;4.50;;;;;;;;;;10350324;28;20231;-70
2023/05/21 15:23:26;;;;;;;10.23;5.57;;;;;;;;;;10347046;28;20057;-72
2023/05/21 15:28:26;;;;;;;12.65;4.57;;;;;;;;;;10367179;28;20475;-72
2023/05/21 15:33:27;;;;;;;13.45;4.30;;;;;;;;;;10348170;28;20201;-74
2023/05/21 15:38:27;;;;;;;11.68;5.10;;;;;;;;;;10367038;28;20026;-72
2023/05/21 15:43:27;;;;;;;7.20;3.67;;;;;;;;;;10367784;28;20026;-72
2023/05/21 15:48:27;;;;;;;10.52;3.22;;;;;;;;;;10366379;28;20038;-71
2023/05/21 15:53:28;;;;;;;6.40;3.58;;;;;;;;;;10366368;28;20251;-72
2023/05/21 15:58:29;;;;;;;7.90;4.22;;;;;;;;;;10366345;28;20071;-72
2023/05/21 16:03:30;;;;;;;7.90;3.70;;;;;;;;;;10362564;28;20065;-72
2023/05/21 16:08:30;;;;;;;13.07;3.20;;;;;;;;;;10365745;28;20223;-73
2023/05/21 16:13:30;;;;;;;9.43;3.80;;;;;;;;;;10365775;28;20041;-73
2023/05/21 16:18:30;;;;;;;10.80;4.38;;;;;;;;;;10366128;28;20033;-73
2023/05/21 16:23:32;;;;;;;9.48;3.42;;;;;;;;;;10365693;28;20054;-72
2023/05/21 16:28:33;;;;;;;13.70;5.20;;;;;;;;;;10365506;28;20042;-72
2023/05/21 16:33:33;;;;;;;11.93;4.00;;;;;;;;;;10365230;28;20081;-72
2023/05/21 16:38:34;;;;;;;11.13;5.30;;;;;;;;;;10362222;28;20061;-70
2023/05/21 16:43:35;;;;;;;10.93;3.83;;;;;;;;;;10348450;28;20497;-70
2023/05/21 16:48:37;;;;;;;13.07;5.97;;;;;;;;;;10343937;28;20216;-70
2023/05/21 16:53:37;;;;;;;8.98;4.28;;;;;;;;;;10343605;28;20038;-69
2023/05/21 16:58:37;;;;;;;11.40;4.00;;;;;;;;;;10362998;28;20287;-69
2023/05/21 17:03:38;;;;;;;7.43;3.97;;;;;;;;;;10358289;28;20060;-70
2023/05/21 17:08:38;;;;;;;7.77;4.10;;;;;;;;;;10363324;28;20108;-71
2023/05/21 17:13:38;;;;;;;12.10;3.67;;;;;;;;;;10364030;28;20026;-69
2023/05/21 17:18:38;;;;;;;6.40;3.65;;;;;;;;;;10362576;28;20041;-70
2023/05/21 17:23:41;;;;;;;10.38;4.63;;;;;;;;;;10361558;28;20057;-71
2023/05/21 17:28:42;;;;;;;5.63;3.78;;;;;;;;;;10368925;28;20518;-70
2023/05/21 17:33:42;;;;;;;22.60;4.50;;;;;;;;;;10351077;28;20037;-75
2023/05/21 17:38:43;;;;;;;15.70;4.88;;;;;;;;;;10372167;28;20084;-75
2023/05/21 17:43:45;;;;;;;11.20;4.47;;;;;;;;;;10371397;28;20033;-75
2023/05/21 17:48:46;;;;;;;11.32;4.57;;;;;;;;;;10369652;28;20312;-74
2023/05/21 17:53:46;;;;;;;14.23;5.28;;;;;;;;;;10368329;28;20375;-74
2023/05/21 17:58:48;;;;;;;11.45;4.32;;;;;;;;;;10366025;28;20323;-74
2023/05/21 18:03:48;;;;;;;7.45;3.78;;;;;;;;;;10355074;28;20034;-74
2023/05/21 18:08:50;;;;;;;9.63;5.05;;;;;;;;;;10354534;28;20113;-74
2023/05/21 18:13:50;;;;;;;11.32;4.45;;;;;;;;;;10354949;28;20335;-74
2023/05/21 18:18:50;;;;;;;16.25;4.97;;;;;;;;;;10359111;28;20045;-75
2023/05/21 18:23:51;;;;;;;12.75;4.60;;;;;;;;;;10370357;28;20342;-74
2023/05/21 18:28:51;;;;;;;10.68;4.55;;;;;;;;;;10371973;28;20336;-74
2023/05/21 18:33:51;;;;;;;11.10;4.50;;;;;;;;;;10370657;28;20025;-74
2023/05/21 18:38:52;;;;;;;13.07;4.73;;;;;;;;;;10370742;28;20029;-74
2023/05/21 18:43:52;;;;;;;16.67;5.60;;;;;;;;;;10371461;28;20381;-73
2023/05/21 18:48:52;;;;;;;9.20;5.13;;;;;;;;;;10370669;28;20281;-74
2023/05/21 18:53:53;;;;;;;9.10;4.63;;;;;;;;;;10356301;28;20072;-74
2023/05/21 18:58:53;;;;;;;9.15;4.78;;;;;;;;;;10371231;28;20344;-74
2023/05/21 19:03:53;;;;;;;9.97;5.70;;;;;;;;;;10353069;28;20365;-75
2023/05/21 19:08:54;;;;;;;14.23;5.67;;;;;;;;;;10370295;28;20430;-75
2023/05/21 19:13:54;;;;;;;8.13;4.60;;;;;;;;;;10370709;28;20223;-73
2023/05/21 19:18:54;;;;;;;9.53;4.77;;;;;;;;;;10369739;28;20342;-73
2023/05/21 19:23:55;;;;;;;23.57;6.80;;;;;;;;;;10369484;28;20070;-74
2023/05/21 19:28:55;;;;;;;11.45;5.20;;;;;;;;;;10370198;28;20058;-73
2023/05/21 19:33:55;;;;;;;9.03;4.70;;;;;;;;;;10369044;28;20030;-74
2023/05/21 19:38:57;;;;;;;20.80;8.63;;;;;;;;;;10366098;28;20057;-74
2023/05/21 19:43:57;;;;;;;18.58;6.15;;;;;;;;;;10368174;28;20053;-74
2023/05/21 19:48:58;;;;;;;15.05;5.57;;;;;;;;;;10353244;28;20251;-73
2023/05/21 19:53:58;;;;;;;14.60;6.80;;;;;;;;;;10368931;28;20056;-74
2023/05/21 19:58:58;;;;;;;16.08;6.68;;;;;;;;;;10369139;28;20022;-74
2023/05/21 20:03:59;;;;;;;12.63;6.43;;;;;;;;;;10369219;28;20025;-75
2023/05/21 20:08:59;;;;;;;16.27;6.75;;;;;;;;;;10368409;28;20072;-73
2023/05/21 20:14:01;;;;;;;15.93;6.17;;;;;;;;;;10368284;28;20060;-75
2023/05/21 20:19:02;;;;;;;14.50;6.85;;;;;;;;;;10367631;28;20037;-74
2023/05/21 20:24:02;;;;;;;17.05;7.03;;;;;;;;;;10368085;28;20042;-72
2023/05/21 20:29:05;;;;;;;20.65;6.45;;;;;;;;;;10367484;28;20066;-73
2023/05/21 20:34:06;;;;;;;13.63;6.43;;;;;;;;;;10365471;28;20322;-73
2023/05/21 20:39:08;;;;;;;13.27;7.85;;;;;;;;;;10367446;28;20033;-74
2023/05/21 20:44:08;;;;;;;11.57;7.13;;;;;;;;;;10367798;28;20022;-73
2023/05/21 20:49:08;;;;;;;17.55;7.38;;;;;;;;;;10368080;28;20029;-73
2023/05/21 20:54:09;;;;;;;15.77;6.37;;;;;;;;;;10367284;28;20033;-73
2023/05/21 20:59:11;;;;;;;24.85;7.72;;;;;;;;;;10347380;28;20084;-74
2023/05/21 21:04:11;;;;;;;16.15;7.10;;;;;;;;;;10358837;28;20087;-74
2023/05/21 21:09:11;;;;;;;18.60;7.97;;;;;;;;;;10349930;28;20038;-73
2023/05/21 21:14:12;;;;;;;20.27;6.85;;;;;;;;;;10365159;28;20227;-71
2023/05/21 21:19:12;;;;;;;15.55;6.78;;;;;;;;;;10368407;28;20056;-71
2023/05/21 21:24:13;;;;;;;13.87;7.30;;;;;;;;;;10317446;28;20044;-75
2023/05/21 21:29:13;;;;;;;19.30;7.60;;;;;;;;;;10302908;28;20328;-75
2023/05/21 21:34:13;;;;;;;24.67;8.33;;;;;;;;;;10306269;28;20025;-78
2023/05/21 21:39:15;;;;;;;15.57;7.72;;;;;;;;;;10298825;28;20061;-76
2023/05/21 21:44:15;;;;;;;22.42;7.32;;;;;;;;;;10307695;28;20428;-76
2023/05/21 21:49:16;;;;;;;15.50;7.25;;;;;;;;;;10307149;28;20026;-74
2023/05/21 21:54:16;;;;;;;18.92;8.18;;;;;;;;;;10331699;28;20394;-73
2023/05/21 21:59:16;;;;;;;15.50;7.20;;;;;;;;;;10330608;28;20038;-75
2023/05/21 22:04:16;;;;;;;13.85;6.30;;;;;;;;;;10332404;28;20355;-74
2023/05/21 22:09:17;;;;;;;15.18;6.70;;;;;;;;;;10331416;28;20034;-74
2023/05/21 22:14:18;;;;;;;18.67;6.77;;;;;;;;;;10337878;28;20057;-74
2023/05/21 22:19:20;;;;;;;15.18;6.82;;;;;;;;;;10339494;28;20106;-74
2023/05/21 22:24:21;;;;;;;20.45;7.95;;;;;;;;;;10339288;28;20316;-74
2023/05/21 22:29:21;;;;;;;14.00;5.95;;;;;;;;;;10322138;28;20065;-74
2023/05/21 22:34:23;;;;;;;11.07;6.63;;;;;;;;;;10338939;28;20029;-74
2023/05/21 22:39:24;;;;;;;14.63;6.38;;;;;;;;;;10339246;28;20061;-74
2023/05/21 22:44:24;;;;;;;12.35;6.82;;;;;;;;;;10337115;28;20037;-74
2023/05/21 22:49:25;;;;;;;14.03;6.77;;;;;;;;;;10338265;28;20347;-74
2023/05/21 22:54:25;;;;;;;15.52;6.95;;;;;;;;;;10337595;28;20029;-75
2023/05/21 22:59:27;;;;;;;13.43;7.03;;;;;;;;;;10338452;28;20046;-75
2023/05/21 23:04:29;;;;;;;23.13;6.63;;;;;;;;;;10338049;28;20034;-75
2023/05/21 23:09:30;;;;;;;14.05;7.95;;;;;;;;;;10337839;28;20371;-74
2023/05/21 23:14:30;;;;;;;9.53;6.07;;;;;;;;;;10337232;28;20026;-73
2023/05/21 23:19:31;;;;;;;14.18;7.20;;;;;;;;;;10319931;28;20029;-73
2023/05/21 23:24:33;;;;;;;10.43;6.80;;;;;;;;;;10336115;28;20049;-74
2023/05/21 23:29:34;;;;;;;14.15;8.05;;;;;;;;;;10336711;28;20393;-73
2023/05/21 23:34:34;;;;;;;24.48;7.72;;;;;;;;;;10336668;28;20022;-76
2023/05/21 23:39:35;;;;;;;13.10;7.40;;;;;;;;;;10336396;28;20232;-75
2023/05/21 23:44:35;;;;;;;15.38;7.88;;;;;;;;;;10336498;28;20064;-73
2023/05/21 23:49:36;;;;;;;16.17;8.65;;;;;;;;;;10335940;28;20061;-75
2023/05/21 23:54:36;;;;;;;16.60;6.95;;;;;;;;;;10336070;28;20030;-73
2023/05/21 23:59:36;;;;;;;11.80;7.60;;;;;;;;;;10335820;28;20089;-73
